EmailTwitter


Surface observations / Quebec / EGOM

Regions: Quebec | Canada | USA | Europe | France | UK | Elsewhere
Station
Display
Info & Location for EGOM | Help decoding METAR

Weather Conditions observed on 2017/05/24 at 04:50 UTC (EGOM)

Sky conditions: overcast.

Obstruction(s) to Vision: fog.

Temperature: 12.0 Celsius.

Dewpoint: 12.0 Celsius.

Relative Humidity: 100%

Windchill Factor: 9.

Winds: West at 28 km/h or 15 knots.

Mean Sea level Pressure: 102.20 kilopascals.

Horizontal visibility: 0.12 statute miles or 0.20 kilometers.

Height of the Ceiling: 30 metres ( 100 feet ).

Coded METAR:

EGOM 240450Z AUTO 26015KT 0200 FG OVC001/// 12/12 Q1022=